createdAt,value
2023-02-02T02:15:56.973Z,0.53
2023-02-02T02:17:20.822Z,0.51
2023-02-02T02:18:51.493Z,0.46
2023-02-02T02:20:34.040Z,0.53
2023-02-02T02:22:20.447Z,0.44
2023-02-02T04:39:44.892Z,0.33
2023-02-02T04:40:51.560Z,0.22
2023-02-02T04:42:02.402Z,0.26
2023-02-02T04:43:15.939Z,0.31
2023-02-02T04:44:28.318Z,0.30
2023-02-02T04:45:35.814Z,0.26
2023-02-02T04:46:43.414Z,0.28
2023-02-02T05:08:31.176Z,0.19
2023-02-02T05:10:27.127Z,0.13
2023-02-02T05:11:41.244Z,0.12
2023-02-02T05:12:56.027Z,0.19
2023-02-02T05:14:04.500Z,0.01
2023-02-02T05:15:13.601Z,0.10
2023-02-02T05:16:21.419Z,0.14
2023-02-02T05:17:52.804Z,0.15
2023-02-02T05:20:23.873Z,0.09
2023-02-02T05:21:29.541Z,0.15
2023-02-02T05:22:40.717Z,0.20
2023-02-02T05:23:53.196Z,0.14
2023-02-02T05:25:00.375Z,0.16
2023-02-02T08:10:54.179Z,1.18
2023-02-02T08:12:55.047Z,1.11
2023-02-02T08:25:24.518Z,1.38
2023-02-02T08:28:30.809Z,1.23
2023-02-02T17:46:40.326Z,1.00
2023-02-02T17:49:17.069Z,0.94
2023-02-02T17:50:31.942Z,0.98
2023-02-02T17:51:48.007Z,0.92
2023-02-02T17:52:58.009Z,0.92
2023-02-02T17:54:15.819Z,0.89
2023-02-02T17:55:57.013Z,1.01
2023-02-02T17:57:24.475Z,0.94
2023-02-02T17:58:33.427Z,0.76
2023-02-02T17:59:56.355Z,0.82
2023-02-02T18:01:06.298Z,0.97
2023-02-02T18:02:28.847Z,0.97
2023-02-02T18:04:20.877Z,0.92
